createdAt,value
2023-04-04T00:00:09.685Z,0.74
2023-04-04T00:02:36.172Z,0.69
2023-04-04T00:05:02.878Z,0.67
2023-04-04T00:07:29.256Z,0.65
2023-04-04T00:09:55.827Z,0.64
2023-04-04T00:12:24.767Z,0.60
2023-04-04T00:14:53.397Z,0.54
2023-04-04T00:17:19.937Z,0.52
2023-04-04T00:19:46.494Z,0.51
2023-04-04T00:22:13.877Z,0.54
2023-04-04T00:24:40.681Z,0.53
2023-04-04T00:27:07.094Z,0.49
2023-04-04T00:29:34.426Z,0.50
2023-04-04T00:32:01.312Z,0.43
2023-04-04T00:34:27.796Z,0.48
2023-04-04T00:36:54.337Z,0.45
2023-04-04T00:39:20.871Z,0.44
2023-04-04T00:41:50.428Z,0.45
2023-04-04T00:44:17.062Z,0.45
2023-04-04T00:46:43.643Z,0.46
2023-04-04T00:49:10.291Z,0.50
2023-04-04T00:51:36.849Z,0.52
2023-04-04T00:54:03.836Z,0.50
2023-04-04T00:56:33.021Z,0.50
2023-04-04T00:59:00.825Z,0.47
2023-04-04T01:01:27.605Z,0.40
2023-04-04T01:03:54.641Z,0.40
2023-04-04T01:06:21.164Z,0.41
2023-04-04T01:08:48.455Z,0.42
2023-04-04T01:11:16.647Z,0.40
2023-04-04T01:13:43.965Z,0.40
2023-04-04T01:16:13.830Z,0.41
2023-04-04T01:18:42.152Z,0.30
2023-04-04T01:21:11.914Z,0.41
2023-04-04T01:23:59.965Z,0.39
2023-04-04T01:26:31.308Z,0.36
2023-04-04T01:29:01.058Z,0.38
2023-04-04T01:31:49.476Z,0.36
2023-04-04T01:34:28.603Z,0.35
2023-04-04T01:37:10.940Z,0.34
2023-04-04T01:39:49.541Z,0.33
2023-04-04T01:42:16.955Z,0.27
2023-04-04T01:44:46.508Z,0.27
2023-04-04T01:47:13.843Z,0.21
2023-04-04T01:49:40.871Z,0.19
2023-04-04T01:52:07.747Z,0.19
2023-04-04T01:54:35.987Z,0.20
2023-04-04T01:57:02.553Z,0.18
2023-04-04T01:59:29.900Z,0.20
2023-04-04T02:01:56.453Z,0.23
2023-04-04T02:04:23.142Z,0.22
2023-04-04T02:06:50.276Z,0.24
2023-04-04T02:09:16.786Z,0.23
2023-04-04T02:11:43.218Z,0.20
2023-04-04T02:14:09.784Z,0.23
2023-04-04T02:16:36.225Z,0.22
2023-04-04T02:19:02.838Z,0.21
2023-04-04T02:21:29.256Z,0.21
2023-04-04T02:23:55.716Z,0.21
2023-04-04T02:26:22.404Z,0.23
2023-04-04T02:28:48.815Z,0.18
2023-04-04T02:31:15.668Z,0.20
2023-04-04T02:33:42.246Z,0.19
2023-04-04T02:36:09.970Z,0.19
2023-04-04T02:38:36.529Z,0.15
2023-04-04T02:41:05.275Z,0.16
2023-04-04T02:43:31.687Z,0.19
2023-04-04T02:46:01.230Z,0.20
2023-04-04T02:48:32.064Z,0.20
2023-04-04T02:51:01.451Z,0.22
2023-04-04T02:53:28.475Z,0.22
2023-04-04T02:56:02.653Z,0.20
2023-04-04T02:58:31.053Z,0.16
2023-04-04T03:00:57.618Z,0.18
2023-04-04T03:03:28.792Z,0.18
2023-04-04T03:05:55.920Z,0.16
2023-04-04T03:08:22.516Z,0.11
2023-04-04T03:10:48.923Z,0.07
2023-04-04T03:13:15.350Z,0.06
2023-04-04T03:15:41.888Z,0.00
2023-04-04T03:18:08.452Z,0.00
2023-04-04T03:20:34.939Z,-0.01
2023-04-04T03:23:01.391Z,0.00
2023-04-04T03:25:27.820Z,-0.03
2023-04-04T03:27:54.788Z,-0.10
2023-04-04T03:30:24.231Z,-0.12
2023-04-04T03:32:50.878Z,-0.10
2023-04-04T03:35:17.842Z,-0.11
2023-04-04T03:37:44.426Z,-0.12
2023-04-04T03:40:11.167Z,-0.14
2023-04-04T03:42:38.293Z,-0.16
2023-04-04T03:45:09.289Z,-0.17
2023-04-04T03:47:36.886Z,-0.20
2023-04-04T03:50:03.496Z,-0.21
2023-04-04T03:52:31.837Z,-0.22
2023-04-04T03:54:58.238Z,-0.19
2023-04-04T03:57:27.110Z,-0.22
2023-04-04T03:59:53.530Z,-0.20
2023-04-04T04:02:21.782Z,-0.23
2023-04-04T04:04:48.234Z,-0.26
2023-04-04T04:07:14.648Z,-0.27
2023-04-04T04:09:42.192Z,-0.29
2023-04-04T04:12:08.738Z,-0.29
2023-04-04T04:14:35.251Z,-0.28
2023-04-04T04:17:02.572Z,-0.29
2023-04-04T04:19:29.007Z,-0.32
2023-04-04T04:21:56.416Z,-0.34
2023-04-04T04:24:22.807Z,-0.34
2023-04-04T04:26:49.282Z,-0.38
2023-04-04T04:29:16.584Z,-0.38
2023-04-04T04:31:43.373Z,-0.42
2023-04-04T04:34:10.453Z,-0.43
2023-04-04T04:36:38.816Z,-0.45
2023-04-04T04:39:24.915Z,-0.48
2023-04-04T04:42:03.535Z,-0.49
2023-04-04T04:44:30.428Z,-0.50
2023-04-04T04:46:57.111Z,-0.48
2023-04-04T04:49:23.767Z,-0.51
2023-04-04T04:51:51.402Z,-0.50
2023-04-04T04:54:19.796Z,-0.51
2023-04-04T04:56:52.190Z,-0.52
2023-04-04T04:59:19.926Z,-0.55
2023-04-04T05:01:47.171Z,-0.54
2023-04-04T05:04:17.542Z,-0.53
2023-04-04T05:06:56.197Z,-0.56
2023-04-04T05:09:22.625Z,-0.59
2023-04-04T05:11:49.544Z,-0.59
2023-04-04T05:14:20.129Z,-0.56
2023-04-04T05:16:52.368Z,-0.52
2023-04-04T05:19:18.948Z,-0.55
2023-04-04T05:21:50.263Z,-0.54
2023-04-04T05:24:27.536Z,-0.50
2023-04-04T05:26:54.199Z,-0.47
2023-04-04T05:29:20.657Z,-0.43
2023-04-04T05:31:49.049Z,-0.36
2023-04-04T05:34:19.223Z,-0.34
2023-04-04T05:36:47.572Z,-0.32
2023-04-04T05:39:14.554Z,-0.31
2023-04-04T05:41:51.428Z,-0.30
2023-04-04T05:44:20.435Z,-0.27
2023-04-04T05:46:46.965Z,-0.23
2023-04-04T05:49:13.685Z,-0.19
2023-04-04T05:51:46.240Z,-0.20
2023-04-04T05:54:15.357Z,-0.20
2023-04-04T05:56:42.973Z,-0.24
2023-04-04T05:59:21.098Z,-0.25
2023-04-04T06:01:58.617Z,-0.21
2023-04-04T06:04:25.272Z,-0.16
2023-04-04T06:06:53.773Z,-0.13
2023-04-04T06:09:21.237Z,-0.05
2023-04-04T06:11:47.699Z,-0.01
2023-04-04T06:14:15.246Z,0.04
2023-04-04T06:16:42.654Z,0.07
2023-04-04T06:19:09.088Z,0.09
2023-04-04T06:21:35.488Z,0.14
2023-04-04T06:24:02.322Z,0.17
2023-04-04T06:26:28.876Z,0.22
2023-04-04T06:28:55.862Z,0.24
2023-04-04T06:31:34.190Z,0.30
2023-04-04T06:34:07.371Z,0.36
2023-04-04T06:36:42.823Z,0.42
2023-04-04T06:39:11.669Z,0.44
2023-04-04T06:41:38.131Z,0.44
2023-04-04T06:44:04.660Z,0.50
2023-04-04T06:46:33.047Z,0.56
2023-04-04T06:48:59.643Z,0.60
2023-04-04T06:51:26.042Z,0.63
2023-04-04T06:53:52.767Z,0.63
2023-04-04T06:56:19.204Z,0.66
2023-04-04T06:58:45.676Z,0.71
2023-04-04T07:01:12.301Z,0.76
2023-04-04T07:03:38.879Z,0.77
2023-04-04T07:06:05.985Z,0.91
2023-04-04T07:08:36.957Z,0.95
2023-04-04T07:11:04.497Z,1.02
2023-04-04T07:13:30.871Z,1.10
2023-04-04T07:15:57.254Z,1.13
2023-04-04T07:18:23.648Z,1.18
2023-04-04T07:20:50.094Z,1.26
2023-04-04T07:23:16.757Z,1.33
2023-04-04T07:25:44.440Z,1.41
2023-04-04T07:28:13.201Z,1.43
2023-04-04T07:30:39.974Z,1.53
2023-04-04T07:33:06.911Z,1.58
2023-04-04T07:35:34.740Z,1.63
2023-04-04T07:38:01.193Z,1.71
2023-04-04T07:40:27.564Z,1.71
2023-04-04T07:42:54.581Z,1.73
2023-04-04T07:45:24.190Z,1.75
2023-04-04T07:47:50.700Z,1.81
2023-04-04T07:50:17.203Z,1.83
2023-04-04T07:52:49.389Z,1.87
2023-04-04T07:55:16.839Z,1.96
2023-04-04T07:57:43.594Z,2.05
2023-04-04T08:00:10.645Z,2.13
2023-04-04T08:02:43.861Z,2.20
2023-04-04T08:05:10.695Z,2.21
2023-04-04T08:07:37.074Z,2.38
2023-04-04T08:10:03.659Z,2.48
2023-04-04T08:12:30.092Z,2.51
2023-04-04T08:14:56.554Z,2.46
2023-04-04T08:17:23.128Z,2.59
2023-04-04T08:19:49.552Z,2.70
2023-04-04T08:22:15.967Z,2.88
2023-04-04T08:24:42.731Z,3.10
2023-04-04T08:27:09.133Z,3.19
2023-04-04T08:29:35.638Z,3.29
2023-04-04T08:32:02.033Z,3.16
2023-04-04T08:34:28.690Z,3.08
2023-04-04T08:36:56.055Z,3.20
2023-04-04T08:39:22.624Z,3.28
2023-04-04T08:42:02.310Z,3.33
2023-04-04T08:44:30.101Z,3.44
2023-04-04T08:46:56.804Z,3.47
2023-04-04T08:49:26.523Z,3.62
2023-04-04T08:51:55.801Z,3.85
2023-04-04T08:54:24.488Z,3.76
2023-04-04T08:56:52.728Z,3.92
2023-04-04T08:59:20.363Z,3.89
2023-04-04T09:01:47.526Z,3.76
2023-04-04T09:04:13.930Z,3.92
2023-04-04T09:06:40.784Z,3.99
2023-04-04T09:09:07.689Z,4.19
2023-04-04T09:11:35.912Z,4.25
2023-04-04T09:14:04.618Z,4.23
2023-04-04T09:16:31.401Z,4.12
2023-04-04T09:18:57.864Z,4.06
2023-04-04T09:21:24.289Z,3.99
2023-04-04T09:24:01.417Z,4.21
2023-04-04T09:26:27.938Z,4.47
2023-04-04T09:28:55.575Z,4.58
2023-04-04T09:31:24.569Z,4.70
2023-04-04T09:33:51.194Z,4.74
2023-04-04T09:36:18.621Z,4.67
2023-04-04T09:38:49.391Z,4.63
2023-04-04T09:41:17.825Z,4.69
2023-04-04T09:43:45.552Z,4.81
2023-04-04T09:46:12.156Z,4.76
2023-04-04T09:48:38.561Z,4.72
2023-04-04T09:51:06.950Z,4.85
2023-04-04T09:53:36.292Z,4.85
2023-04-04T09:56:03.121Z,4.73
2023-04-04T09:58:31.931Z,4.94
2023-04-04T10:01:01.288Z,5.25
2023-04-04T10:03:29.162Z,5.49
2023-04-04T10:05:59.850Z,5.67
2023-04-04T10:08:28.752Z,5.83
2023-04-04T10:11:09.721Z,5.63
2023-04-04T10:13:41.445Z,5.61
2023-04-04T10:16:09.066Z,5.76
2023-04-04T10:18:36.703Z,5.92
2023-04-04T10:21:15.251Z,5.99
2023-04-04T10:23:45.475Z,6.06
2023-04-04T10:26:13.342Z,6.18
2023-04-04T10:28:40.321Z,6.31
2023-04-04T10:31:20.243Z,6.40
2023-04-04T10:33:53.930Z,6.55
2023-04-04T10:36:24.638Z,6.66
2023-04-04T10:39:32.618Z,6.73
2023-04-04T10:42:00.027Z,6.74
2023-04-04T10:44:33.708Z,6.84
2023-04-04T10:47:22.015Z,7.06
2023-04-04T10:49:50.021Z,6.97
2023-04-04T10:52:22.662Z,7.02
2023-04-04T10:54:55.391Z,7.09
2023-04-04T10:57:23.302Z,7.25
2023-04-04T11:00:06.527Z,7.36
2023-04-04T11:02:56.800Z,7.48
2023-04-04T11:05:33.136Z,7.56
2023-04-04T11:10:33.722Z,7.74
2023-04-04T11:13:12.668Z,7.44
2023-04-04T11:15:53.216Z,7.42
2023-04-04T11:18:32.589Z,7.43
2023-04-04T11:21:05.112Z,7.44
2023-04-04T11:23:49.677Z,7.73
2023-04-04T11:26:35.653Z,8.07
2023-04-04T11:29:04.097Z,8.49
2023-04-04T11:31:38.995Z,8.62
2023-04-04T11:34:11.266Z,8.80
2023-04-04T11:36:37.771Z,8.98
2023-04-04T11:39:11.931Z,9.08
2023-04-04T11:42:08.126Z,9.33
2023-04-04T11:44:41.688Z,9.49
2023-04-04T11:47:09.241Z,9.20
2023-04-04T11:49:41.587Z,9.02
2023-04-04T11:52:12.058Z,9.01
2023-04-04T11:54:40.144Z,9.12
2023-04-04T11:57:08.147Z,9.46
2023-04-04T11:59:40.612Z,9.76
2023-04-04T12:02:09.185Z,9.99
2023-04-04T12:04:45.349Z,10.15
2023-04-04T12:07:13.737Z,10.28
2023-04-04T12:09:40.641Z,9.95
2023-04-04T12:12:07.742Z,9.72
2023-04-04T12:14:34.251Z,9.11
2023-04-04T12:17:02.949Z,9.00
2023-04-04T12:19:29.777Z,9.44
2023-04-04T12:21:57.780Z,9.91
2023-04-04T12:24:24.391Z,10.25
2023-04-04T12:26:52.764Z,10.43
2023-04-04T12:29:21.825Z,10.32
2023-04-04T12:31:49.551Z,10.36
2023-04-04T12:34:23.226Z,10.51
2023-04-04T12:36:55.781Z,10.86
2023-04-04T12:39:23.190Z,11.00
2023-04-04T12:42:04.458Z,11.19
2023-04-04T12:44:39.300Z,11.33
2023-04-04T12:47:07.770Z,11.48
2023-04-04T12:49:39.273Z,11.64
2023-04-04T12:52:07.661Z,11.79
2023-04-04T12:54:37.291Z,12.03
2023-04-04T12:57:05.656Z,12.15
2023-04-04T12:59:34.419Z,12.37
2023-04-04T13:02:03.099Z,12.69
2023-04-04T13:04:29.630Z,12.74
2023-04-04T13:06:56.167Z,12.41
2023-04-04T13:09:23.575Z,12.56
2023-04-04T13:12:04.434Z,12.84
2023-04-04T13:14:56.844Z,12.77
2023-04-04T13:17:23.636Z,12.88
2023-04-04T13:19:51.568Z,12.68
2023-04-04T13:22:18.343Z,12.21
2023-04-04T13:24:44.766Z,11.71
2023-04-04T13:27:11.166Z,11.09
2023-04-04T13:29:37.608Z,11.00
2023-04-04T13:32:04.920Z,11.27
2023-04-04T13:34:31.525Z,11.43
2023-04-04T13:36:58.049Z,11.25
2023-04-04T13:39:25.076Z,11.69
2023-04-04T13:41:51.488Z,12.14
2023-04-04T13:44:17.880Z,12.54
2023-04-04T13:46:44.308Z,12.71
2023-04-04T13:49:11.023Z,12.73
2023-04-04T13:51:37.581Z,12.81
2023-04-04T13:54:04.032Z,12.99
2023-04-04T13:56:30.478Z,13.22
2023-04-04T13:58:57.032Z,13.34
2023-04-04T14:01:23.546Z,13.60
2023-04-04T14:03:50.254Z,13.86
2023-04-04T14:06:16.777Z,13.77
2023-04-04T14:08:43.264Z,13.28
2023-04-04T14:11:09.713Z,12.53
2023-04-04T14:13:36.785Z,12.03
2023-04-04T14:16:03.594Z,11.53
2023-04-04T14:18:30.186Z,11.24
2023-04-04T14:20:56.728Z,11.31
2023-04-04T14:23:26.409Z,11.48
2023-04-04T14:25:52.934Z,11.12
2023-04-04T14:28:19.410Z,11.18
2023-04-04T14:30:46.028Z,11.65
2023-04-04T14:33:12.518Z,12.16
2023-04-04T14:35:39.314Z,12.63
2023-04-04T14:38:05.993Z,12.82
2023-04-04T14:40:32.380Z,12.76
2023-04-04T14:42:58.886Z,12.41
2023-04-04T14:45:26.059Z,11.87
2023-04-04T14:47:52.512Z,11.32
2023-04-04T14:50:18.936Z,11.25
2023-04-04T14:52:45.399Z,11.59
2023-04-04T14:55:12.213Z,11.98
2023-04-04T14:57:46.973Z,12.17
2023-04-04T15:00:24.067Z,12.51
2023-04-04T15:02:51.233Z,12.80
2023-04-04T15:05:19.612Z,12.99
2023-04-04T15:07:46.765Z,12.97
2023-04-04T15:10:13.746Z,12.90
2023-04-04T15:12:40.224Z,12.88
2023-04-04T15:15:07.223Z,12.75
2023-04-04T15:17:33.692Z,12.96
2023-04-04T15:20:00.179Z,13.13
2023-04-04T15:22:26.685Z,13.33
2023-04-04T15:24:53.158Z,13.51
2023-04-04T15:27:19.805Z,13.57
2023-04-04T15:29:46.407Z,13.11
2023-04-04T15:32:13.223Z,12.80
2023-04-04T15:34:40.535Z,12.36
2023-04-04T15:37:09.496Z,12.08
2023-04-04T15:39:46.072Z,12.08
2023-04-04T15:42:18.574Z,11.72
2023-04-04T15:44:44.961Z,11.76
2023-04-04T15:47:11.478Z,11.59
2023-04-04T15:49:37.979Z,11.29
2023-04-04T15:52:04.631Z,11.02
2023-04-04T15:54:31.431Z,11.02
2023-04-04T15:56:57.856Z,11.25
2023-04-04T15:59:24.333Z,11.31
2023-04-04T16:01:51.177Z,11.37
2023-04-04T16:04:17.699Z,10.97
2023-04-04T16:06:44.150Z,10.45
2023-04-04T16:09:10.604Z,9.99
2023-04-04T16:11:37.797Z,9.90
2023-04-04T16:14:05.885Z,10.03
2023-04-04T16:16:32.355Z,9.96
2023-04-04T16:18:58.906Z,10.18
2023-04-04T16:21:26.462Z,10.64
2023-04-04T16:23:52.866Z,11.05
2023-04-04T16:26:20.647Z,11.30
2023-04-04T16:28:47.435Z,11.53
2023-04-04T16:31:17.567Z,11.76
2023-04-04T16:33:44.082Z,11.89
2023-04-04T16:36:10.680Z,11.81
2023-04-04T16:38:37.117Z,11.72
2023-04-04T16:41:04.839Z,11.60
2023-04-04T16:43:31.350Z,11.55
2023-04-04T16:45:57.777Z,11.42
2023-04-04T16:48:24.244Z,11.38
2023-04-04T16:50:50.906Z,11.29
2023-04-04T16:53:17.365Z,11.24
2023-04-04T16:55:43.766Z,11.04
2023-04-04T16:58:10.267Z,10.65
2023-04-04T17:00:36.691Z,10.63
2023-04-04T17:03:03.607Z,11.01
2023-04-04T17:05:30.105Z,11.32
2023-04-04T17:07:56.710Z,11.99
2023-04-04T17:10:23.129Z,13.58
2023-04-04T17:12:49.717Z,14.99
2023-04-04T17:15:17.884Z,14.80
2023-04-04T17:17:45.057Z,13.18
2023-04-04T17:20:17.517Z,11.84
2023-04-04T17:22:45.362Z,10.79
2023-04-04T17:25:12.004Z,10.02
2023-04-04T17:27:38.450Z,9.34
2023-04-04T17:30:05.626Z,8.82
2023-04-04T17:32:32.119Z,8.46
2023-04-04T17:34:58.547Z,8.08
2023-04-04T17:37:24.992Z,7.77
2023-04-04T17:39:51.434Z,7.55
2023-04-04T17:42:17.879Z,7.31
2023-04-04T17:44:44.260Z,7.06
2023-04-04T17:47:12.182Z,6.83
2023-04-04T17:49:39.726Z,6.68
2023-04-04T17:52:06.248Z,6.58
2023-04-04T17:54:33.020Z,6.49
2023-04-04T17:57:00.198Z,6.43
2023-04-04T17:59:27.739Z,6.35
2023-04-04T18:01:54.409Z,6.27
2023-04-04T18:04:22.186Z,6.20
2023-04-04T18:06:48.642Z,6.12
2023-04-04T18:09:15.112Z,6.02
2023-04-04T18:11:41.739Z,5.91
2023-04-04T18:14:08.641Z,5.81
2023-04-04T18:16:39.810Z,5.71
2023-04-04T18:19:07.976Z,5.64
2023-04-04T18:21:34.352Z,5.60
2023-04-04T18:24:01.466Z,5.54
2023-04-04T18:26:28.160Z,5.50
2023-04-04T18:28:54.587Z,5.42
2023-04-04T18:31:21.477Z,5.34
2023-04-04T18:33:49.794Z,5.27
2023-04-04T18:36:16.385Z,5.21
2023-04-04T18:38:42.852Z,5.14
2023-04-04T18:41:09.896Z,5.08
2023-04-04T18:43:37.302Z,5.03
2023-04-04T18:46:05.637Z,4.99
2023-04-04T18:48:33.601Z,4.95
2023-04-04T18:51:00.563Z,4.94
2023-04-04T18:53:29.688Z,4.90
2023-04-04T18:55:59.560Z,4.83
2023-04-04T18:58:26.590Z,4.82
2023-04-04T19:00:55.528Z,4.77
2023-04-04T19:03:22.348Z,4.76
2023-04-04T19:05:49.607Z,4.72
2023-04-04T19:08:17.796Z,4.66
2023-04-04T19:10:47.258Z,4.62
2023-04-04T19:13:15.026Z,4.59
2023-04-04T19:15:42.967Z,4.55
2023-04-04T19:18:10.612Z,4.55
2023-04-04T19:20:37.249Z,4.52
2023-04-04T19:23:03.816Z,4.49
2023-04-04T19:25:30.564Z,4.43
2023-04-04T19:27:57.350Z,4.41
2023-04-04T19:30:47.139Z,4.38
2023-04-04T19:33:18.530Z,4.30
2023-04-04T19:36:08.279Z,4.28
2023-04-04T19:38:37.238Z,4.21
2023-04-04T19:41:08.919Z,4.15
2023-04-04T19:43:35.920Z,4.10
2023-04-04T19:46:09.480Z,4.00
2023-04-04T19:48:38.629Z,3.89
2023-04-04T19:51:36.185Z,3.77
2023-04-04T19:54:02.671Z,3.70
2023-04-04T19:56:29.124Z,3.65
2023-04-04T19:59:05.294Z,3.64
2023-04-04T20:01:34.775Z,3.61
2023-04-04T20:04:10.234Z,3.60
2023-04-04T20:06:38.264Z,3.58
2023-04-04T20:09:12.992Z,3.54
2023-04-04T20:11:39.865Z,3.52
2023-04-04T20:14:07.851Z,3.50
2023-04-04T20:16:34.442Z,3.50
2023-04-04T20:19:03.464Z,3.54
2023-04-04T20:21:33.747Z,3.55
2023-04-04T20:24:05.923Z,3.55
2023-04-04T20:26:47.826Z,3.52
2023-04-04T20:29:16.840Z,3.48
2023-04-04T20:31:55.480Z,3.48
2023-04-04T20:34:38.353Z,3.49
2023-04-04T20:37:12.525Z,3.49
2023-04-04T20:39:55.224Z,3.45
2023-04-04T20:42:30.764Z,3.45
2023-04-04T20:45:08.475Z,3.42
2023-04-04T20:47:45.397Z,3.41
2023-04-04T20:50:17.797Z,3.40
2023-04-04T20:52:52.988Z,3.41
2023-04-04T20:55:22.392Z,3.39
2023-04-04T20:57:50.811Z,3.40
2023-04-04T21:00:29.569Z,3.34
2023-04-04T21:02:58.531Z,3.31
2023-04-04T21:05:33.418Z,3.28
2023-04-04T21:08:01.546Z,3.22
2023-04-04T21:10:28.350Z,3.18
2023-04-04T21:13:00.851Z,3.15
2023-04-04T21:15:30.048Z,3.12
2023-04-04T21:18:02.212Z,3.11
2023-04-04T21:21:01.174Z,3.12
2023-04-04T21:23:27.544Z,3.12
2023-04-04T21:26:04.860Z,3.11
2023-04-04T21:28:33.467Z,3.10
2023-04-04T21:31:01.188Z,3.06
2023-04-04T21:33:27.752Z,3.04
2023-04-04T21:35:56.068Z,3.01
2023-04-04T21:38:33.757Z,2.98
2023-04-04T21:41:22.499Z,2.96
2023-04-04T21:43:49.056Z,2.90
2023-04-04T21:46:15.488Z,2.93
2023-04-04T21:48:42.311Z,2.95
2023-04-04T21:51:08.715Z,2.95
2023-04-04T21:53:35.215Z,2.93
2023-04-04T21:56:01.647Z,2.98
2023-04-04T21:58:29.336Z,2.96
2023-04-04T22:00:55.884Z,2.95
2023-04-04T22:03:22.330Z,2.95
2023-04-04T22:05:48.991Z,2.89
2023-04-04T22:08:15.511Z,2.94
2023-04-04T22:10:50.162Z,2.90
2023-04-04T22:13:18.616Z,2.83
2023-04-04T22:15:46.912Z,2.84
2023-04-04T22:18:17.146Z,2.81
2023-04-04T22:20:47.774Z,2.81
2023-04-04T22:23:17.652Z,2.79
2023-04-04T22:25:44.276Z,2.73
2023-04-04T22:28:10.769Z,2.71
2023-04-04T22:30:39.143Z,2.63
2023-04-04T22:33:05.896Z,2.60
2023-04-04T22:35:32.833Z,2.54
2023-04-04T22:38:03.531Z,2.55
2023-04-04T22:40:31.910Z,2.52
2023-04-04T22:42:59.399Z,2.49
2023-04-04T22:45:26.717Z,2.55
2023-04-04T22:47:53.266Z,2.49
2023-04-04T22:50:23.145Z,2.43
2023-04-04T22:52:49.950Z,2.41
2023-04-04T22:55:20.221Z,2.37
2023-04-04T22:57:46.841Z,2.28
2023-04-04T23:00:14.657Z,2.35
2023-04-04T23:02:42.619Z,2.33
2023-04-04T23:05:10.575Z,2.27
2023-04-04T23:07:38.004Z,2.24
2023-04-04T23:10:06.005Z,2.21
2023-04-04T23:12:32.888Z,2.17
2023-04-04T23:15:01.445Z,2.17
2023-04-04T23:17:28.081Z,2.11
2023-04-04T23:19:54.818Z,2.13
2023-04-04T23:22:21.464Z,2.04
2023-04-04T23:24:48.472Z,2.14
2023-04-04T23:27:15.673Z,2.13
2023-04-04T23:29:42.978Z,2.14
2023-04-04T23:32:10.062Z,2.14
2023-04-04T23:34:36.588Z,2.13
2023-04-04T23:37:03.804Z,2.11
2023-04-04T23:39:30.279Z,2.10
2023-04-04T23:41:58.238Z,2.08
2023-04-04T23:44:24.689Z,2.12
2023-04-04T23:46:51.452Z,2.09
2023-04-04T23:49:18.081Z,2.07
2023-04-04T23:51:44.799Z,2.07
2023-04-04T23:54:12.811Z,2.02
2023-04-04T23:56:39.855Z,2.00
2023-04-04T23:59:06.518Z,1.94
